Vamdrup, Denmark
Current Conditions -  °F | °C
As of 5:50 PM on Thursday 27 Nov 2014 (Local Time) from EKSP Reporting Station
Broken Clouds Broken Clouds  
Wind Chill: 33°   Ceiling: 2500
Heat Index: 41°   Visibility: 6mi
Dew Point: 34°   Wind: 15mph
Humidity: 76%   Direction: 120°ESE
Pressure: 29.97"   Gusts: 26mph
Location:  55.43°N, 9.28°E
Report Text: EKSP 271650Z 12013G23KT 9999 BKN025 05/01 Q1015 NOSIG
Loading
Personal Weather Stations






























Interactive Weather Map New forecast layout! Learn more

10-Day Weather Forecast

Advertisements
Track Severe Weather on mobile